Tranbjerg, Denmark
Current Conditions -  °F | °C
As of 12:20 PM on Friday 24 Oct 2014 (Local Time) from EKAH Reporting Station
Overcast Overcast  
Wind Chill: 54°   Ceiling: 800
Heat Index: 54°   Visibility: 4mi
Dew Point: 50°   Wind: 10mph
Humidity: 88%   Direction: 190°S
Pressure: 30.03"   Gusts: 23mph
Location:  56.09°N, 10.12°E
Report Text: EKAH 241020Z AUTO 19009G20KT 120V260 6000NDV OVC008///12/10 Q1017
Loading
Personal Weather Stations






























Interactive Weather Map
Tropical Storm Tracking
New forecast layout! Learn more

10-Day Weather Forecast

Advertisements
Track Severe Weather on mobile